Time;durP1;ratioP1;P1;durP2;ratioP2;P2;SDS_P1;SDS_P2;PMS_P1;PMS_P2;Temp;Humidity;BMP_temperature;BMP_pressure;BME280_temperature;BME280_humidity;BME280_pressure;Samples;Min_cycle;Max_cycle;Signal;HPM_P1;HPM_P2
2021/08/29 00:00:55;;;;;;;7.73;3.73;;;16.00;1.00;;;;;;5054447;28;20750;-79
2021/08/29 00:03:21;;;;;;;8.83;3.37;;;16.00;1.00;;;;;;5067355;28;20413;-78
2021/08/29 00:05:47;;;;;;;6.77;2.90;;;16.00;1.00;;;;;;5073562;28;20386;-78
2021/08/29 00:08:13;;;;;;;11.20;2.97;;;16.00;1.00;;;;;;5073400;28;20155;-78
2021/08/29 00:10:43;;;;;;;4.87;2.70;;;16.00;1.00;;;;;;5060647;28;20392;-78
2021/08/29 00:13:13;;;;;;;8.03;3.20;;;16.00;1.00;;;;;;5056306;28;20418;-78
2021/08/29 00:15:43;;;;;;;5.70;2.87;;;16.00;1.00;;;;;;5052442;28;20424;-80
2021/08/29 00:18:19;;;;;;;3.90;2.60;;;16.00;1.00;;;;;;5056674;28;20403;-80
2021/08/29 00:20:49;;;;;;;4.30;2.77;;;16.00;1.00;;;;;;5065504;28;20398;-80
2021/08/29 00:23:15;;;;;;;4.00;2.97;;;16.00;1.00;;;;;;5063011;28;20422;-80
2021/08/29 00:25:49;;;;;;;5.07;3.03;;;16.00;1.00;;;;;;5058951;28;20407;-81
2021/08/29 00:28:19;;;;;;;3.43;3.13;;;16.00;1.00;;;;;;5086218;28;20866;-80
2021/08/29 00:30:45;;;;;;;4.40;2.80;;;;;;;;;;5073234;28;20476;-79
2021/08/29 00:33:11;;;;;;;5.07;2.83;;;16.00;1.00;;;;;;5072155;28;20453;-79
2021/08/29 00:35:37;;;;;;;3.23;2.83;;;16.00;1.00;;;;;;5073464;28;20400;-78
2021/08/29 00:38:20;;;;;;;4.03;3.17;;;16.00;1.00;;;;;;5073418;28;20237;-78
2021/08/29 00:40:50;;;;;;;4.63;3.60;;;16.00;1.00;;;;;;5072010;28;20828;-78
2021/08/29 00:43:23;;;;;;;5.17;3.10;;;16.00;1.00;;;;;;5072067;28;20373;-78
2021/08/29 00:45:53;;;;;;;6.47;3.90;;;16.00;1.00;;;;;;5072431;28;20456;-78
2021/08/29 00:48:32;;;;;;;5.97;3.73;;;16.00;1.00;;;;;;5072734;28;20410;-78
2021/08/29 00:50:58;;;;;;;4.37;3.70;;;16.00;1.00;;;;;;5056222;28;20396;-78
2021/08/29 00:53:32;;;;;;;8.27;4.57;;;16.20;1.00;;;;;;5053608;28;20381;-78
2021/08/29 00:56:21;;;;;;;7.90;4.30;;;16.10;1.00;;;;;;5053334;28;20159;-78
2021/08/29 00:58:56;;;;;;;6.03;4.30;;;16.10;1.00;;;;;;5058446;28;20900;-78
2021/08/29 01:01:42;;;;;;;5.30;4.37;;;16.10;1.00;;;;;;5053827;28;20394;-80
2021/08/29 01:04:21;;;;;;;7.27;4.70;;;16.10;1.00;;;;;;5052702;28;20784;-80
2021/08/29 01:07:06;;;;;;;10.60;3.87;;;16.20;1.00;;;;;;5053012;28;20530;-80
2021/08/29 01:09:41;;;;;;;7.63;5.00;;;16.10;1.00;;;;;;5059179;28;20498;-80
2021/08/29 01:12:24;;;;;;;9.27;4.63;;;16.10;1.00;;;;;;5063193;28;20400;-80
2021/08/29 01:14:56;;;;;;;8.97;4.80;;;16.10;1.00;;;;;;5073268;28;20368;-79
2021/08/29 01:17:29;;;;;;;5.40;4.47;;;16.20;1.00;;;;;;5072983;28;20375;-78
2021/08/29 01:20:21;;;;;;;4.70;4.10;;;16.20;1.00;;;;;;5071896;28;20390;-79
2021/08/29 01:23:02;;;;;;;13.93;3.80;;;16.20;1.00;;;;;;5076148;28;20441;-78
2021/08/29 01:25:44;;;;;;;4.97;3.90;;;16.20;1.00;;;;;;5071759;28;20392;-78
2021/08/29 01:28:18;;;;;;;4.00;3.60;;;16.20;1.00;;;;;;5072072;28;20927;-78
2021/08/29 01:30:55;;;;;;;8.60;3.57;;;16.50;1.00;;;;;;5066225;28;20754;-80
2021/08/29 01:33:31;;;;;;;5.80;4.07;;;16.20;1.00;;;;;;5056603;28;20556;-80
2021/08/29 01:36:07;;;;;;;6.20;4.23;;;16.20;1.00;;;;;;5056276;28;20444;-80
2021/08/29 01:38:37;;;;;;;5.33;4.27;;;16.20;1.00;;;;;;5056422;28;20382;-80
2021/08/29 01:41:09;;;;;;;6.30;5.10;;;16.20;1.00;;;;;;5057391;28;20409;-80
2021/08/29 01:44:07;;;;;;;6.60;4.60;;;16.10;1.00;;;;;;5059340;28;20399;-80
2021/08/29 01:46:44;;;;;;;5.50;4.10;;;16.20;1.00;;;;;;5063423;28;20451;-80
2021/08/29 01:49:27;;;;;;;9.17;5.37;;;16.10;1.00;;;;;;5073335;28;20950;-80
2021/08/29 01:51:53;;;;;;;7.17;5.50;;;16.20;1.00;;;;;;5056672;28;20713;-81
2021/08/29 01:54:19;;;;;;;9.60;5.77;;;16.10;1.00;;;;;;5076012;28;20393;-81
2021/08/29 01:57:13;;;;;;;5.60;4.60;;;16.20;1.00;;;;;;5076066;28;20242;-80
2021/08/29 01:59:49;;;;;;;7.00;5.13;;;16.20;1.00;;;;;;5069665;28;20178;-80
2021/08/29 02:02:25;;;;;;;11.03;4.80;;;16.20;1.00;;;;;;5068402;28;20432;-78
2021/08/29 02:05:01;;;;;;;5.90;5.17;;;16.20;1.00;;;;;;5074688;28;20895;-79
2021/08/29 02:07:48;;;;;;;9.73;5.40;;;16.20;1.00;;;;;;5075518;28;20456;-79
2021/08/29 02:10:16;;;;;;;8.20;4.83;;;16.20;1.00;;;;;;5064152;28;20434;-78
2021/08/29 02:12:47;;;;;;;5.83;4.23;;;16.20;1.00;;;;;;5054776;28;20496;-78
2021/08/29 02:15:29;;;;;;;5.57;4.10;;;16.20;1.00;;;;;;5058301;28;20417;-80
2021/08/29 02:17:57;;;;;;;5.80;4.60;;;16.20;1.00;;;;;;5075582;28;20390;-78
2021/08/29 02:20:38;;;;;;;5.60;4.33;;;16.20;1.00;;;;;;5063602;28;20414;-79
2021/08/29 02:23:08;;;;;;;7.10;4.73;;;16.10;1.00;;;;;;5071601;28;20410;-78
2021/08/29 02:26:01;;;;;;;5.60;4.30;;;16.20;1.00;;;;;;5069310;28;20923;-79
2021/08/29 02:28:49;;;;;;;7.70;4.60;;;16.20;1.00;;;;;;5073129;28;20416;-79
2021/08/29 02:31:25;;;;;;;9.13;4.77;;;16.20;1.00;;;;;;5072620;28;20403;-80
2021/08/29 02:33:55;;;;;;;5.77;4.30;;;16.20;1.00;;;;;;5055085;28;20456;-80
2021/08/29 02:36:21;;;;;;;12.87;5.20;;;16.20;1.00;;;;;;5056556;28;20513;-80
2021/08/29 02:39:07;;;;;;;7.40;5.40;;;16.20;1.00;;;;;;5075027;28;20427;-80
2021/08/29 02:41:38;;;;;;;6.07;4.93;;;16.20;1.00;;;;;;5059712;28;20408;-80
2021/08/29 02:44:07;;;;;;;5.53;4.80;;;16.20;1.00;;;;;;5054925;28;20409;-80
2021/08/29 02:46:34;;;;;;;7.43;4.60;;;16.20;1.00;;;;;;5055266;28;20416;-79
2021/08/29 02:49:08;;;;;;;9.40;4.47;;;16.20;1.00;;;;;;5057197;28;20383;-79
2021/08/29 02:52:07;;;;;;;4.93;3.97;;;16.30;1.00;;;;;;5058105;28;20442;-79
2021/08/29 02:54:40;;;;;;;10.43;4.00;;;16.30;1.00;;;;;;5057435;28;20376;-79
2021/08/29 02:57:14;;;;;;;6.10;4.40;;;16.30;1.00;;;;;;5075336;28;20402;-79
2021/08/29 02:59:40;;;;;;;5.70;4.40;;;16.30;1.00;;;;;;5072687;28;20470;-79
2021/08/29 03:02:25;;;;;;;4.50;4.10;;;16.20;1.00;;;;;;5055134;28;20982;-81
2021/08/29 03:05:09;;;;;;;8.87;5.10;;;16.20;1.00;;;;;;5066165;28;20399;-80
2021/08/29 03:07:37;;;;;;;5.97;4.90;;;16.20;1.00;;;;;;5074725;28;20429;-81
2021/08/29 03:10:43;;;;;;;5.67;4.40;;;16.20;1.00;;;;;;5072782;28;20405;-80
2021/08/29 03:13:17;;;;;;;7.27;5.00;;;16.20;1.00;;;;;;5058650;28;20450;-80
2021/08/29 03:15:52;;;;;;;8.07;5.33;;;16.20;1.00;;;;;;5054882;28;20434;-80
2021/08/29 03:18:21;;;;;;;17.67;5.53;;;16.20;1.00;;;;;;5073748;28;20848;-78
2021/08/29 03:20:50;;;;;;;5.33;4.20;;;16.20;1.00;;;;;;5072727;28;20426;-78
2021/08/29 03:23:16;;;;;;;6.83;5.00;;;16.20;1.00;;;;;;5057693;28;20769;-79
2021/08/29 03:25:43;;;;;;;7.50;4.27;;;16.20;1.00;;;;;;5064128;28;20425;-79
2021/08/29 03:28:10;;;;;;;5.17;4.40;;;16.20;1.00;;;;;;5073684;28;20474;-78
2021/08/29 03:30:37;;;;;;;5.43;4.00;;;16.20;1.00;;;;;;5070819;28;20399;-78
2021/08/29 03:33:04;;;;;;;8.43;4.80;;;16.20;1.00;;;;;;5054421;28;20422;-78
2021/08/29 03:35:32;;;;;;;6.17;4.40;;;16.20;1.00;;;;;;5053666;28;20398;-78
2021/08/29 03:38:07;;;;;;;10.47;4.80;;;16.20;1.00;;;;;;5052889;28;20437;-79
2021/08/29 03:40:40;;;;;;;4.80;3.53;;;16.20;1.00;;;;;;5071146;28;20417;-78
2021/08/29 03:43:19;;;;;;;3.80;3.37;;;16.10;1.00;;;;;;5066744;28;20939;-78
2021/08/29 03:45:46;;;;;;;3.77;3.30;;;16.10;1.00;;;;;;5073921;28;20406;-78
2021/08/29 03:48:12;;;;;;;6.27;3.60;;;16.10;1.00;;;;;;5074084;28;20505;-80
2021/08/29 03:50:50;;;;;;;3.10;2.13;;;16.10;1.00;;;;;;5073313;28;20484;-80
2021/08/29 03:53:31;;;;;;;3.10;2.80;;;16.10;1.00;;;;;;5073859;28;20860;-80
2021/08/29 03:55:57;;;;;;;2.53;2.33;;;16.10;1.00;;;;;;5073844;28;20360;-80
2021/08/29 03:58:40;;;;;;;12.47;2.50;;;16.10;1.00;;;;;;5073675;28;20519;-81
2021/08/29 04:01:08;;;;;;;2.60;2.13;;;16.20;1.00;;;;;;5069630;28;20384;-81
2021/08/29 04:03:43;;;;;;;10.43;2.50;;;16.10;1.00;;;;;;5072496;28;20372;-78
2021/08/29 04:06:37;;;;;;;2.00;1.90;;;16.10;1.00;;;;;;5073986;28;20768;-78
2021/08/29 04:09:05;;;;;;;7.53;2.07;;;16.10;1.00;;;;;;5072119;28;20409;-78
2021/08/29 04:11:32;;;;;;;2.03;1.80;;;16.10;1.00;;;;;;5072006;28;20991;-78
2021/08/29 04:14:11;;;;;;;6.70;1.73;;;16.10;1.00;;;;;;5072316;28;20891;-79
2021/08/29 04:16:57;;;;;;;1.33;1.23;;;16.10;1.00;;;;;;5069141;28;20413;-80
2021/08/29 04:19:24;;;;;;;2.40;1.80;;;16.10;1.00;;;;;;5053798;28;20455;-80
2021/08/29 04:21:55;;;;;;;2.60;1.60;;;16.10;1.00;;;;;;5053826;28;20393;-81
2021/08/29 04:24:25;;;;;;;4.97;1.30;;;16.10;1.00;;;;;;5053491;28;20365;-82
2021/08/29 04:27:01;;;;;;;2.03;1.93;;;16.10;1.00;;;;;;5062490;28;20953;-84
2021/08/29 04:29:49;;;;;;;2.50;2.30;;;16.10;1.00;;;;;;5065346;28;20399;-81
2021/08/29 04:32:47;;;;;;;1.60;1.50;;;16.10;1.00;;;;;;5054404;28;20428;-78
2021/08/29 04:35:19;;;;;;;4.80;1.87;;;16.10;1.00;;;;;;5053303;28;20885;-78
2021/08/29 04:37:56;;;;;;;1.80;1.70;;;16.10;1.00;;;;;;5053428;28;20369;-78
2021/08/29 04:40:22;;;;;;;1.50;1.40;;;16.10;1.00;;;;;;5066784;28;20445;-78
2021/08/29 04:42:48;;;;;;;3.27;1.43;;;16.10;1.00;;;;;;5053770;28;20410;-78
2021/08/29 04:45:43;;;;;;;5.63;1.40;;;16.10;1.00;;;;;;5053392;28;20487;-78
2021/08/29 04:48:09;;;;;;;3.43;1.73;;;16.10;1.00;;;;;;5053765;28;20550;-79
2021/08/29 04:50:37;;;;;;;1.80;1.70;;;16.10;1.00;;;;;;5059792;28;20380;-78
2021/08/29 04:53:07;;;;;;;1.40;1.30;;;16.10;1.00;;;;;;5068956;28;20179;-78
2021/08/29 04:55:37;;;;;;;2.00;1.90;;;16.10;1.00;;;;;;5054894;28;20387;-80
2021/08/29 04:58:19;;;;;;;4.40;1.57;;;16.10;1.00;;;;;;5066848;28;20441;-79
2021/08/29 05:00:45;;;;;;;1.57;1.47;;;16.20;1.00;;;;;;5077207;28;20382;-78
2021/08/29 05:03:37;;;;;;;2.37;1.50;;;16.10;1.00;;;;;;5056893;28;20418;-81
2021/08/29 05:06:03;;;;;;;1.83;1.73;;;16.10;1.00;;;;;;5072596;28;20183;-81
2021/08/29 05:08:31;;;;;;;1.87;1.73;;;16.00;1.00;;;;;;5076707;28;20429;-81
2021/08/29 05:10:57;;;;;;;3.80;1.50;;;16.10;1.00;;;;;;5075744;28;20405;-80
2021/08/29 05:13:43;;;;;;;12.90;1.23;;;16.10;1.00;;;;;;5057114;28;20451;-80
2021/08/29 05:16:13;;;;;;;1.20;1.20;;;16.10;1.00;;;;;;5056995;28;20160;-80
2021/08/29 05:18:49;;;;;;;3.07;1.37;;;16.10;1.00;;;;;;5058625;28;20392;-81
2021/08/29 05:21:43;;;;;;;2.40;1.40;;;16.10;1.00;;;;;;5073603;28;20685;-81
2021/08/29 05:24:13;;;;;;;2.30;1.20;;;16.10;1.00;;;;;;5065513;28;20388;-81
2021/08/29 05:26:39;;;;;;;1.63;1.53;;;16.10;1.00;;;;;;5074307;28;20470;-81
2021/08/29 05:29:07;;;;;;;4.30;1.37;;;16.20;1.00;;;;;;5075976;28;20566;-81
2021/08/29 05:31:49;;;;;;;2.67;1.40;;;16.10;1.00;;;;;;5075203;28;20182;-81
2021/08/29 05:34:15;;;;;;;1.53;1.10;;;16.20;1.00;;;;;;5057167;28;20404;-78
2021/08/29 05:37:37;;;;;;;1.10;1.10;;;16.10;1.00;;;;;;5055189;28;20425;-78
2021/08/29 05:40:08;;;;;;;0.97;0.97;;;16.00;1.00;;;;;;5055053;28;20179;-78
2021/08/29 05:42:49;;;;;;;7.83;1.30;;;16.10;1.00;;;;;;5062397;28;20728;-78
2021/08/29 05:45:31;;;;;;;1.00;1.00;;;16.10;1.00;;;;;;5056205;28;20899;-78
2021/08/29 05:51:25;;;;;;;1.10;1.10;;;16.20;1.00;;;;;;5056725;28;20377;-78
2021/08/29 05:54:01;;;;;;;1.27;1.17;;;16.20;1.00;;;;;;5056667;28;20434;-78
2021/08/29 05:56:37;;;;;;;14.30;1.10;;;16.20;1.00;;;;;;5061477;28;20417;-78
2021/08/29 05:59:07;;;;;;;2.70;0.97;;;16.30;1.00;;;;;;5076026;28;20380;-78
2021/08/29 06:01:37;;;;;;;1.53;1.13;;;16.30;1.00;;;;;;5075858;28;20391;-78
2021/08/29 06:04:07;;;;;;;2.03;1.20;;;16.40;1.00;;;;;;5064037;28;20915;-81
2021/08/29 06:06:43;;;;;;;2.03;1.10;;;16.40;1.00;;;;;;5055913;28;20504;-80
2021/08/29 06:09:49;;;;;;;3.53;1.30;;;16.60;1.00;;;;;;5055705;28;20390;-81
2021/08/29 06:12:14;;;;;;;4.00;1.07;;;16.50;1.00;;;;;;5073334;28;20489;-80
2021/08/29 06:14:40;;;;;;;1.10;1.00;;;16.60;1.00;;;;;;5054776;28;20468;-81
2021/08/29 06:17:19;;;;;;;1.30;1.17;;;16.60;1.00;;;;;;5055576;28;20171;-81
2021/08/29 06:19:49;;;;;;;1.20;1.20;;;16.60;1.00;;;;;;5058967;28;20167;-80
2021/08/29 06:22:25;;;;;;;1.47;1.37;;;16.60;1.00;;;;;;5075319;28;20903;-81
2021/08/29 06:24:55;;;;;;;3.70;1.30;;;16.80;1.00;;;;;;5062547;28;20432;-81
2021/08/29 06:30:43;;;;;;;1.10;1.10;;;16.70;1.00;;;;;;5055045;28;20409;-80
2021/08/29 06:33:13;;;;;;;3.07;1.20;;;16.70;1.00;;;;;;5060697;28;20521;-78
2021/08/29 06:35:43;;;;;;;1.20;1.07;;;16.70;1.00;;;;;;5055462;28;20547;-78
2021/08/29 06:38:49;;;;;;;1.30;1.10;;;16.80;1.00;;;;;;5067225;28;20376;-78
2021/08/29 06:41:14;;;;;;;1.40;1.30;;;16.70;1.00;;;;;;5075782;28;20444;-78
2021/08/29 06:44:01;;;;;;;3.70;1.10;;;16.80;1.00;;;;;;5073537;28;20527;-78
2021/08/29 06:46:26;;;;;;;5.40;1.00;;;16.80;1.00;;;;;;5075433;28;20219;-78
2021/08/29 06:49:01;;;;;;;5.80;1.23;;;16.80;1.00;;;;;;5075304;28;20426;-81
2021/08/29 06:51:37;;;;;;;7.67;1.50;;;16.90;1.00;;;;;;5075020;28;20164;-81
2021/08/29 06:54:43;;;;;;;1.27;1.23;;;16.90;1.00;;;;;;5069211;28;20491;-78
2021/08/29 06:57:13;;;;;;;3.23;1.20;;;16.90;1.00;;;;;;5055113;28;20444;-81
2021/08/29 06:59:43;;;;;;;1.90;0.83;;;17.00;1.00;;;;;;5061439;28;20396;-81
2021/08/29 07:02:49;;;;;;;7.23;1.30;;;17.00;1.00;;;;;;5073081;28;20381;-81
2021/08/29 07:05:15;;;;;;;1.43;1.03;;;17.10;1.00;;;;;;5054963;28;20457;-82
2021/08/29 07:08:07;;;;;;;0.93;0.93;;;17.10;1.00;;;;;;5054433;28;20570;-81
2021/08/29 07:10:33;;;;;;;1.00;1.00;;;17.10;1.00;;;;;;5061821;28;20194;-80
2021/08/29 07:13:07;;;;;;;3.83;1.30;;;17.10;1.00;;;;;;5054367;28;20388;-81
2021/08/29 07:15:37;;;;;;;2.50;1.10;;;17.10;1.00;;;;;;5054485;28;20559;-81
2021/08/29 07:18:07;;;;;;;1.00;1.00;;;17.10;1.00;;;;;;5074253;28;20398;-80
2021/08/29 07:20:33;;;;;;;1.80;1.07;;;17.10;1.00;;;;;;5061517;28;20402;-81
2021/08/29 07:23:01;;;;;;;3.00;1.23;;;17.20;1.00;;;;;;5053241;28;20467;-81
2021/08/29 07:25:37;;;;;;;1.30;0.90;;;17.10;1.00;;;;;;5059562;28;20176;-81
2021/08/29 07:28:19;;;;;;;2.87;1.17;;;17.20;1.00;;;;;;5076914;28;20837;-81
2021/08/29 07:30:45;;;;;;;0.90;0.90;;;17.20;1.00;;;;;;5069964;28;20413;-81
2021/08/29 07:33:13;;;;;;;2.70;1.07;;;17.20;1.00;;;;;;5064635;28;20389;-79
2021/08/29 07:35:55;;;;;;;5.53;1.17;;;17.30;1.00;;;;;;5071590;28;20440;-81
2021/08/29 07:38:21;;;;;;;1.90;0.97;;;17.40;1.00;;;;;;5073963;28;20434;-86
2021/08/29 07:41:07;;;;;;;0.80;0.80;;;17.40;1.00;;;;;;5073521;28;20514;-85
2021/08/29 07:44:01;;;;;;;1.27;1.23;;;17.40;1.00;;;;;;5060522;28;20202;-85
2021/08/29 07:46:28;;;;;;;1.10;1.00;;;17.50;1.00;;;;;;5070974;28;20432;-79
2021/08/29 07:49:07;;;;;;;4.10;1.00;;;17.50;1.00;;;;;;5074708;28;21045;-84
2021/08/29 07:52:07;;;;;;;1.87;1.50;;;17.50;1.00;;;;;;5074041;28;20736;-88
2021/08/29 07:54:55;;;;;;;6.40;1.80;;;17.50;1.00;;;;;;5069591;28;20511;-84
2021/08/29 07:57:21;;;;;;;9.37;1.67;;;17.50;1.00;;;;;;5054037;28;20396;-84
2021/08/29 08:00:19;;;;;;;1.90;1.80;;;17.60;1.00;;;;;;5053795;28;20406;-78
2021/08/29 08:03:25;;;;;;;1.80;1.70;;;17.60;1.00;;;;;;5053801;28;20254;-78
2021/08/29 08:05:50;;;;;;;2.17;1.90;;;17.70;1.00;;;;;;5053442;28;20391;-78
2021/08/29 08:08:37;;;;;;;2.10;1.70;;;17.70;1.00;;;;;;5060269;28;20454;-79
2021/08/29 08:11:07;;;;;;;4.80;1.57;;;17.80;1.00;;;;;;5073285;28;20576;-78
2021/08/29 08:13:43;;;;;;;11.90;1.57;;;17.90;1.00;;;;;;5066937;28;20399;-77
2021/08/29 08:16:31;;;;;;;2.27;2.07;;;17.90;1.00;;;;;;5073633;28;20409;-78
2021/08/29 08:18:57;;;;;;;2.40;2.03;;;;;;;;;;5060950;28;20404;-80
2021/08/29 08:21:25;;;;;;;2.07;1.93;;;18.00;1.00;;;;;;5057511;28;20424;-79
2021/08/29 08:23:51;;;;;;;1.83;1.73;;;18.00;1.00;;;;;;5070694;28;20381;-79
2021/08/29 08:26:25;;;;;;;1.90;1.80;;;18.00;1.00;;;;;;5063969;28;20418;-79
2021/08/29 08:29:01;;;;;;;5.97;2.07;;;18.00;1.00;;;;;;5064044;28;20553;-78
2021/08/29 08:31:27;;;;;;;3.33;1.83;;;18.00;1.00;;;;;;5056911;28;20436;-78
2021/08/29 08:34:02;;;;;;;2.07;1.90;;;18.00;1.00;;;;;;5058014;28;20432;-79
2021/08/29 08:36:31;;;;;;;4.07;2.37;;;18.00;1.00;;;;;;5057563;28;20522;-79
2021/08/29 08:39:02;;;;;;;2.23;2.13;;;18.00;1.00;;;;;;5071777;28;20421;-79
2021/08/29 08:41:43;;;;;;;4.80;2.70;;;18.00;1.00;;;;;;5077460;28;20388;-80
2021/08/29 08:44:13;;;;;;;4.57;2.90;;;18.00;1.00;;;;;;5061295;28;20420;-77
2021/08/29 08:46:54;;;;;;;3.60;3.00;;;18.00;1.00;;;;;;5062554;28;20792;-79
2021/08/29 08:49:20;;;;;;;6.37;3.67;;;;;;;;;;5077245;28;20415;-78
2021/08/29 08:51:59;;;;;;;3.23;2.93;;;18.00;1.00;;;;;;5077110;28;20402;-78
2021/08/29 08:54:25;;;;;;;3.80;2.97;;;17.90;1.00;;;;;;5059137;28;20408;-78
2021/08/29 08:56:56;;;;;;;4.50;3.47;;;17.90;1.00;;;;;;5056085;28;20848;-78
2021/08/29 08:59:22;;;;;;;5.70;4.10;;;17.90;1.00;;;;;;5055927;28;20510;-78
2021/08/29 09:02:07;;;;;;;14.10;4.00;;;17.90;1.00;;;;;;5057067;28;20481;-78
2021/08/29 09:04:33;;;;;;;6.40;3.53;;;;;;;;;;5073510;28;20425;-79
2021/08/29 09:07:07;;;;;;;6.13;4.00;;;18.00;1.00;;;;;;5077145;28;20422;-79
2021/08/29 09:09:34;;;;;;;6.90;3.20;;;17.90;1.00;;;;;;5076850;28;20383;-79
2021/08/29 09:12:13;;;;;;;4.50;3.80;;;17.90;1.00;;;;;;5076550;28;20415;-79
2021/08/29 09:14:46;;;;;;;5.67;4.27;;;17.90;1.00;;;;;;5057203;28;20498;-79
2021/08/29 09:17:37;;;;;;;7.63;3.97;;;17.90;1.00;;;;;;5059087;28;20886;-79
2021/08/29 09:20:21;;;;;;;11.60;4.40;;;17.90;1.00;;;;;;5077163;28;20825;-80
2021/08/29 09:22:51;;;;;;;6.87;4.50;;;17.90;1.00;;;;;;5071009;28;20424;-79
2021/08/29 09:25:22;;;;;;;9.20;3.60;;;17.90;1.00;;;;;;5058938;28;20929;-79
2021/08/29 09:27:54;;;;;;;6.17;3.67;;;17.90;1.00;;;;;;5061854;28;20902;-79
2021/08/29 09:30:27;;;;;;;9.40;3.87;;;17.90;1.00;;;;;;5067360;28;20391;-79
2021/08/29 09:33:07;;;;;;;4.93;4.37;;;17.90;1.00;;;;;;5072719;28;20983;-79
2021/08/29 09:35:35;;;;;;;9.10;4.17;;;17.90;1.00;;;;;;5069572;28;20437;-81
2021/08/29 09:38:09;;;;;;;5.57;4.10;;;17.90;1.00;;;;;;5076213;28;20909;-81
2021/08/29 09:40:43;;;;;;;5.90;3.97;;;18.00;1.00;;;;;;5075954;28;20468;-81
2021/08/29 09:43:14;;;;;;;4.30;3.57;;;18.00;1.00;;;;;;5076387;28;20878;-81
2021/08/29 09:46:06;;;;;;;5.20;4.23;;;18.00;1.00;;;;;;5062457;28;20814;-82
2021/08/29 09:49:04;;;;;;;7.13;3.03;;;18.00;1.00;;;;;;5072919;28;20823;-81
2021/08/29 09:51:29;;;;;;;9.60;4.00;;;18.00;1.00;;;;;;4975696;28;20462;-79
2021/08/29 09:54:07;;;;;;;5.70;3.83;;;18.00;1.00;;;;;;4975121;28;20472;-79
2021/08/29 09:56:49;;;;;;;5.30;3.50;;;18.00;1.00;;;;;;4975190;28;20435;-79
2021/08/29 09:59:44;;;;;;;3.80;3.20;;;18.20;1.00;;;;;;4961647;28;20939;-79
2021/08/29 10:02:12;;;;;;;7.60;3.20;;;18.30;1.00;;;;;;4936065;29;20821;-79
2021/08/29 10:04:39;;;;;;;5.73;3.80;;;18.30;1.00;;;;;;4936541;29;20434;-80
2021/08/29 10:10:28;;;;;;;12.83;8.83;;;18.40;1.00;;;;;;4936392;29;20391;-81
2021/08/29 10:12:55;;;;;;;14.27;9.27;;;18.40;1.00;;;;;;4936623;29;20542;-80
2021/08/29 10:15:55;;;;;;;8.50;6.70;;;18.50;1.00;;;;;;4935953;29;20527;-80
2021/08/29 10:18:26;;;;;;;3.97;3.53;;;18.50;1.00;;;;;;4936280;29;20401;-80
2021/08/29 10:20:52;;;;;;;4.63;4.23;;;;;;;;;;4936488;29;20412;-80
2021/08/29 10:23:19;;;;;;;6.07;3.73;;;18.50;1.00;;;;;;4934381;29;20425;-81
2021/08/29 10:25:48;;;;;;;4.60;3.63;;;18.50;1.00;;;;;;4932393;29;20546;-81
2021/08/29 10:28:15;;;;;;;4.20;3.70;;;18.50;1.00;;;;;;4990856;28;20833;-80
2021/08/29 10:30:42;;;;;;;6.20;4.73;;;18.50;1.00;;;;;;5032881;28;20416;-80
2021/08/29 10:33:26;;;;;;;5.10;3.87;;;18.60;1.00;;;;;;5031241;28;20879;-80
2021/08/29 10:36:02;;;;;;;4.77;4.30;;;18.60;1.00;;;;;;5027549;28;20431;-79
2021/08/29 10:38:27;;;;;;;4.30;3.90;;;18.70;1.00;;;;;;5043126;28;20422;-79
2021/08/29 10:40:56;;;;;;;10.20;4.13;;;18.70;1.00;;;;;;5075106;28;20756;-79
2021/08/29 10:43:28;;;;;;;10.00;4.40;;;18.70;1.00;;;;;;5075508;28;20400;-79
2021/08/29 10:45:57;;;;;;;10.90;4.30;;;18.70;1.00;;;;;;5090455;28;20427;-79
2021/08/29 10:48:31;;;;;;;5.13;4.20;;;18.70;1.00;;;;;;5074871;28;20463;-79
2021/08/29 10:50:58;;;;;;;5.17;3.90;;;18.70;1.00;;;;;;5075073;28;20419;-80
2021/08/29 10:53:42;;;;;;;11.40;4.83;;;18.80;1.00;;;;;;5073941;28;20431;-79
2021/08/29 10:56:31;;;;;;;4.97;4.50;;;18.90;1.00;;;;;;5059189;28;20415;-77
2021/08/29 10:59:30;;;;;;;4.70;4.13;;;19.10;1.00;;;;;;5054927;28;20360;-77
2021/08/29 11:02:19;;;;;;;4.73;3.50;;;19.10;1.00;;;;;;5054797;28;20372;-75
2021/08/29 11:04:46;;;;;;;6.17;4.00;;;19.20;1.00;;;;;;5054789;28;20440;-76
2021/08/29 11:07:41;;;;;;;7.00;3.50;;;19.20;1.00;;;;;;5054823;28;20428;-78
2021/08/29 11:10:42;;;;;;;4.40;3.50;;;19.40;1.00;;;;;;5053810;28;20430;-85
2021/08/29 11:13:32;;;;;;;3.60;3.30;;;19.40;1.00;;;;;;5013712;28;20422;-84
2021/08/29 11:16:20;;;;;;;5.53;3.50;;;19.50;1.00;;;;;;5026161;28;20437;-86
2021/08/29 11:19:13;;;;;;;4.00;3.13;;;19.40;1.00;;;;;;5027171;28;20438;-78
2021/08/29 11:21:39;;;;;;;5.00;3.60;;;19.40;1.00;;;;;;5036001;28;20433;-78
2021/08/29 11:24:05;;;;;;;5.37;3.80;;;19.30;1.00;;;;;;5015321;28;20821;-79
2021/08/29 11:26:33;;;;;;;3.40;2.93;;;19.30;1.00;;;;;;5031650;28;20283;-79
2021/08/29 11:28:59;;;;;;;3.63;3.20;;;19.30;1.00;;;;;;5034621;28;20437;-79
2021/08/29 11:35:39;;;;;;;4.00;3.60;;;19.30;1.00;;;;;;5020913;28;20474;-85
2021/08/29 11:38:18;;;;;;;4.53;3.23;;;19.30;1.00;;;;;;5029930;28;20429;-79
2021/08/29 11:41:01;;;;;;;4.43;4.00;;;19.40;1.00;;;;;;5020024;28;20410;-79
2021/08/29 11:43:34;;;;;;;4.40;4.00;;;19.30;1.00;;;;;;5032108;28;20504;-82
2021/08/29 11:46:43;;;;;;;6.67;4.00;;;19.30;1.00;;;;;;5045801;28;20428;-84
2021/08/29 11:49:14;;;;;;;4.20;3.80;;;19.30;1.00;;;;;;5059647;28;20450;-82
2021/08/29 11:55:06;;;;;;;5.10;4.03;;;19.20;1.00;;;;;;5060063;28;20465;-86
2021/08/29 11:57:55;;;;;;;4.00;3.60;;;19.20;1.00;;;;;;5073232;28;20424;-90
2021/08/29 12:00:25;;;;;;;4.67;4.00;;;19.20;1.00;;;;;;5073468;28;20448;-89
2021/08/29 12:03:07;;;;;;;5.13;4.20;;;19.20;1.00;;;;;;5073083;28;20628;-89
2021/08/29 12:05:54;;;;;;;4.23;3.83;;;19.20;1.00;;;;;;5073596;28;20749;-81
2021/08/29 12:08:35;;;;;;;5.40;3.63;;;19.20;1.00;;;;;;5073480;28;20494;-77
2021/08/29 12:11:26;;;;;;;5.07;4.10;;;19.30;1.00;;;;;;5053664;28;20369;-77
2021/08/29 12:13:56;;;;;;;5.00;4.27;;;19.20;1.00;;;;;;5053506;28;20393;-79
2021/08/29 12:16:23;;;;;;;7.23;4.50;;;19.20;1.00;;;;;;5053545;28;20392;-80
2021/08/29 12:19:02;;;;;;;13.87;3.73;;;19.20;1.00;;;;;;5052013;28;20770;-79
2021/08/29 12:21:32;;;;;;;5.67;3.80;;;19.30;1.00;;;;;;5053683;28;20390;-79
2021/08/29 12:24:02;;;;;;;7.77;4.60;;;19.40;1.00;;;;;;5069852;28;20437;-78
2021/08/29 12:26:33;;;;;;;3.57;3.27;;;19.40;1.00;;;;;;5067085;28;20517;-78
2021/08/29 12:29:03;;;;;;;6.03;3.97;;;19.40;1.00;;;;;;5057842;28;20392;-77
2021/08/29 12:31:43;;;;;;;5.57;3.80;;;19.50;1.00;;;;;;5072249;28;20428;-78
2021/08/29 12:34:31;;;;;;;4.87;3.33;;;19.50;1.00;;;;;;5073724;28;20451;-77
2021/08/29 12:37:37;;;;;;;3.67;3.23;;;19.60;1.00;;;;;;5062119;28;20556;-80
2021/08/29 12:40:06;;;;;;;4.13;3.70;;;19.60;1.00;;;;;;5069730;28;20413;-80
2021/08/29 12:42:34;;;;;;;3.53;3.10;;;19.60;1.00;;;;;;5073334;28;20423;-80
2021/08/29 12:45:19;;;;;;;4.40;3.50;;;19.70;1.00;;;;;;5073522;28;20394;-79
2021/08/29 12:47:50;;;;;;;4.47;3.50;;;19.80;1.00;;;;;;5071987;28;20476;-81
2021/08/29 12:50:21;;;;;;;4.83;3.37;;;19.90;1.00;;;;;;5071564;28;20509;-81
2021/08/29 12:52:54;;;;;;;5.87;3.30;;;19.90;1.00;;;;;;5073765;28;20396;-78
2021/08/29 12:55:24;;;;;;;4.53;2.93;;;20.10;1.00;;;;;;5061073;28;20406;-78
2021/08/29 12:58:03;;;;;;;3.30;3.00;;;20.10;1.00;;;;;;5069370;28;20420;-78
2021/08/29 13:00:38;;;;;;;3.17;2.10;;;20.20;1.00;;;;;;5071841;28;20414;-78
2021/08/29 13:03:04;;;;;;;3.90;2.30;;;20.50;1.00;;;;;;5061140;28;20413;-77
2021/08/29 13:05:41;;;;;;;4.23;2.37;;;20.50;1.00;;;;;;5062176;28;20380;-77
2021/08/29 13:08:08;;;;;;;2.63;2.40;;;20.60;1.00;;;;;;5073207;28;20446;-78
2021/08/29 13:10:34;;;;;;;2.23;1.90;;;20.60;1.00;;;;;;5057068;28;20409;-78
2021/08/29 13:13:30;;;;;;;4.40;2.47;;;20.40;1.00;;;;;;5051905;28;20528;-77
2021/08/29 13:15:56;;;;;;;1.90;1.80;;;20.40;1.00;;;;;;5053107;28;20394;-78
2021/08/29 13:18:26;;;;;;;2.40;1.90;;;20.20;1.00;;;;;;5057225;28;20396;-78
2021/08/29 13:20:52;;;;;;;1.97;1.70;;;20.10;1.00;;;;;;5073740;28;20505;-77
2021/08/29 13:23:33;;;;;;;1.97;1.83;;;20.10;1.00;;;;;;5072159;28;20418;-77
2021/08/29 13:26:16;;;;;;;5.23;2.00;;;20.00;1.00;;;;;;5060901;28;20391;-77
2021/08/29 13:28:55;;;;;;;3.70;2.00;;;19.80;1.00;;;;;;5069179;28;20538;-77
2021/08/29 13:31:33;;;;;;;1.73;1.63;;;19.80;1.00;;;;;;5073531;28;20431;-77
2021/08/29 13:34:05;;;;;;;2.10;1.90;;;19.70;1.00;;;;;;5072994;28;20402;-77
2021/08/29 13:36:32;;;;;;;2.20;2.00;;;19.80;1.00;;;;;;5072461;28;20383;-77
2021/08/29 13:39:10;;;;;;;2.23;1.97;;;19.80;1.00;;;;;;5076677;28;20421;-81
2021/08/29 13:41:38;;;;;;;2.40;1.77;;;19.80;1.00;;;;;;5074760;28;20383;-80
2021/08/29 13:44:15;;;;;;;2.17;1.83;;;19.80;1.00;;;;;;5075023;28;20476;-80
2021/08/29 13:47:17;;;;;;;1.70;1.60;;;19.80;1.00;;;;;;5076228;28;20479;-80
2021/08/29 13:50:01;;;;;;;1.30;1.20;;;19.90;1.00;;;;;;5017151;28;20990;-80
2021/08/29 13:52:37;;;;;;;1.60;1.50;;;20.00;1.00;;;;;;5022360;28;20914;-80
2021/08/29 13:55:09;;;;;;;1.57;1.30;;;20.00;1.00;;;;;;5034358;28;20882;-79
2021/08/29 13:57:38;;;;;;;1.43;1.33;;;20.00;1.00;;;;;;5034029;28;20402;-79
2021/08/29 14:00:19;;;;;;;2.20;1.50;;;20.00;1.00;;;;;;5034002;28;20411;-79